createdAt,value
2023-07-24T00:00:23.890Z,84.10
2023-07-24T00:00:55.769Z,84.23
2023-07-24T00:01:27.705Z,84.69
2023-07-24T00:01:59.782Z,84.42
2023-07-24T00:02:31.716Z,84.16
2023-07-24T00:03:04.267Z,84.79
2023-07-24T00:03:36.388Z,84.32
2023-07-24T00:04:08.298Z,84.73
2023-07-24T00:04:40.227Z,84.35
2023-07-24T00:05:12.152Z,84.50
2023-07-24T00:05:44.129Z,84.66
2023-07-24T00:06:16.069Z,84.36
2023-07-24T00:06:47.996Z,85.35
2023-07-24T00:07:19.944Z,84.43
2023-07-24T00:07:51.925Z,85.27
2023-07-24T00:08:23.809Z,84.66
2023-07-24T00:08:55.781Z,84.35
2023-07-24T00:09:27.718Z,85.10
2023-07-24T00:09:59.712Z,84.89
2023-07-24T00:10:31.685Z,84.53
2023-07-24T00:11:05.638Z,84.60
2023-07-24T00:11:37.548Z,85.31
2023-07-24T00:12:09.714Z,85.21
2023-07-24T00:12:41.760Z,85.26
2023-07-24T00:13:13.693Z,85.50
2023-07-24T00:13:46.349Z,85.28
2023-07-24T00:14:18.965Z,85.18
2023-07-24T00:14:51.000Z,85.30
2023-07-24T00:15:23.173Z,86.31
2023-07-24T00:15:55.048Z,85.91
2023-07-24T00:16:27.013Z,86.21
2023-07-24T00:16:59.203Z,87.06
2023-07-24T00:17:31.140Z,87.00
2023-07-24T00:18:03.143Z,86.90
2023-07-24T00:18:35.223Z,86.96
2023-07-24T00:19:07.202Z,87.45
2023-07-24T00:19:39.194Z,87.49
2023-07-24T00:20:11.357Z,87.58
2023-07-24T00:20:43.314Z,87.25
2023-07-24T00:21:15.276Z,87.43
2023-07-24T00:21:47.200Z,86.75
2023-07-24T00:22:19.119Z,87.48
2023-07-24T00:22:51.103Z,87.35
2023-07-24T00:23:23.044Z,87.27
2023-07-24T00:23:54.990Z,87.66
2023-07-24T00:24:26.973Z,86.87
2023-07-24T00:24:58.892Z,86.87
2023-07-24T00:25:31.278Z,87.84
2023-07-24T00:26:03.140Z,87.04
2023-07-24T00:26:35.004Z,87.16
2023-07-24T00:27:06.987Z,87.22
2023-07-24T00:27:38.961Z,87.47
2023-07-24T00:28:10.845Z,88.21
2023-07-24T00:28:42.771Z,87.87
2023-07-24T00:29:14.743Z,87.99
2023-07-24T00:29:46.684Z,88.37
2023-07-24T00:30:18.705Z,88.18
2023-07-24T00:30:50.728Z,88.39
2023-07-24T00:31:22.676Z,87.94
2023-07-24T00:31:54.637Z,88.21
2023-07-24T00:32:26.527Z,88.93
2023-07-24T00:32:58.652Z,88.73
2023-07-24T00:33:30.646Z,89.03
2023-07-24T00:34:02.625Z,89.06
2023-07-24T00:34:34.788Z,88.92
2023-07-24T00:35:07.379Z,89.32
2023-07-24T00:35:39.339Z,89.97
2023-07-24T00:36:11.271Z,89.53
2023-07-24T00:36:43.201Z,89.82
2023-07-24T00:37:15.136Z,89.10
2023-07-24T00:37:47.032Z,89.08
2023-07-24T00:38:18.928Z,89.25
2023-07-24T00:38:50.859Z,89.63
2023-07-24T00:39:22.878Z,88.96
2023-07-24T00:39:54.826Z,89.14
2023-07-24T00:40:26.828Z,89.19
2023-07-24T00:40:58.995Z,88.97
2023-07-24T00:41:30.950Z,89.48
2023-07-24T00:42:03.489Z,88.98
2023-07-24T00:42:35.406Z,89.44
2023-07-24T00:43:07.324Z,89.23
2023-07-24T00:43:39.306Z,88.93
2023-07-24T00:44:11.300Z,89.47
2023-07-24T00:44:43.189Z,89.49
2023-07-24T00:45:15.624Z,89.51
2023-07-24T00:45:49.339Z,90.06
2023-07-24T00:46:21.961Z,89.93
2023-07-24T00:46:54.795Z,90.00
2023-07-24T00:47:28.687Z,90.06
2023-07-24T00:48:01.672Z,89.91
2023-07-24T00:48:33.879Z,90.19
2023-07-24T00:49:06.540Z,90.65
2023-07-24T00:49:38.828Z,90.71
2023-07-24T00:50:13.761Z,90.52
2023-07-24T00:50:47.121Z,90.77
2023-07-24T00:51:19.581Z,90.61
2023-07-24T00:51:52.079Z,90.37
2023-07-24T00:52:24.246Z,90.33
2023-07-24T00:52:56.490Z,90.92
2023-07-24T00:53:28.801Z,91.01
2023-07-24T00:54:03.153Z,90.78
2023-07-24T00:54:35.854Z,91.13
2023-07-24T00:55:08.726Z,91.45
2023-07-24T00:55:41.736Z,91.24
2023-07-24T00:56:13.712Z,91.57
2023-07-24T00:56:46.518Z,91.36
2023-07-24T00:57:18.599Z,91.34
2023-07-24T00:57:51.247Z,91.30
2023-07-24T00:58:23.782Z,91.30
2023-07-24T00:58:59.520Z,91.05
2023-07-24T00:59:32.155Z,90.72
2023-07-24T01:00:05.089Z,90.49
2023-07-24T01:00:39.484Z,90.57
2023-07-24T01:01:12.228Z,90.59
2023-07-24T01:01:45.461Z,90.38
2023-07-24T01:02:17.469Z,90.39
2023-07-24T01:02:49.850Z,91.05
2023-07-24T01:03:29.127Z,90.45
2023-07-24T01:04:04.598Z,90.56
2023-07-24T01:04:36.573Z,90.51
2023-07-24T01:05:10.092Z,90.34
2023-07-24T01:05:42.377Z,90.46
2023-07-24T01:06:14.350Z,90.53
2023-07-24T01:06:46.576Z,89.88
2023-07-24T01:07:18.684Z,90.27
2023-07-24T01:07:50.629Z,90.20
2023-07-24T01:08:22.576Z,90.30
2023-07-24T01:08:54.473Z,89.98
2023-07-24T01:09:26.457Z,90.21
2023-07-24T01:09:58.706Z,90.55
2023-07-24T01:10:30.788Z,90.13
2023-07-24T01:11:26.044Z,90.09
2023-07-24T01:12:04.022Z,89.43
2023-07-24T01:13:20.211Z,89.34
2023-07-24T01:13:59.077Z,89.28
2023-07-24T01:14:51.058Z,89.12
2023-07-24T01:15:35.401Z,89.13
2023-07-24T01:16:14.490Z,89.39
2023-07-24T01:16:49.837Z,89.25
2023-07-24T01:17:26.030Z,89.43
2023-07-24T01:18:04.675Z,89.06
2023-07-24T01:18:40.371Z,89.75
2023-07-24T01:19:39.087Z,89.72
2023-07-24T01:20:14.089Z,89.09
2023-07-24T01:20:52.560Z,89.32
2023-07-24T01:21:51.356Z,88.65
2023-07-24T01:22:29.112Z,88.79
2023-07-24T01:23:35.064Z,88.63
2023-07-24T01:24:49.272Z,88.61
2023-07-24T01:25:37.969Z,89.41
2023-07-24T01:26:10.939Z,88.35
2023-07-24T01:26:43.342Z,88.72
2023-07-24T01:27:28.053Z,88.90
2023-07-24T01:27:59.987Z,89.05
2023-07-24T01:28:32.024Z,88.40
2023-07-24T01:29:03.891Z,89.08
2023-07-24T01:29:36.200Z,88.62
2023-07-24T01:30:08.802Z,89.18
2023-07-24T01:30:40.813Z,88.76
2023-07-24T01:31:13.041Z,89.52
2023-07-24T01:31:45.056Z,90.14
2023-07-24T01:32:17.091Z,90.70
2023-07-24T01:32:50.379Z,90.82
2023-07-24T01:33:23.468Z,91.15
2023-07-24T01:33:55.457Z,91.00
2023-07-24T01:34:27.470Z,90.82
2023-07-24T01:34:59.369Z,90.88
2023-07-24T01:35:33.216Z,91.46
2023-07-24T01:36:06.988Z,91.80
2023-07-24T01:36:39.244Z,91.69
2023-07-24T01:37:13.823Z,91.53
2023-07-24T01:37:48.173Z,91.44
2023-07-24T01:38:20.304Z,92.05
2023-07-24T01:38:52.746Z,92.40
2023-07-24T01:39:24.965Z,91.89
2023-07-24T01:39:58.413Z,92.24
2023-07-24T01:40:31.303Z,92.44
2023-07-24T01:41:05.088Z,92.65
2023-07-24T01:41:37.455Z,92.76
2023-07-24T01:42:10.403Z,92.76
2023-07-24T01:42:42.778Z,92.54
2023-07-24T01:43:15.536Z,92.93
2023-07-24T01:43:48.153Z,93.02
2023-07-24T01:44:20.253Z,92.83
2023-07-24T01:44:56.445Z,93.35
2023-07-24T01:45:28.377Z,93.43
2023-07-24T01:46:00.402Z,93.36
2023-07-24T01:46:32.471Z,93.35
2023-07-24T01:47:05.200Z,93.37
2023-07-24T01:47:37.203Z,93.81
2023-07-24T01:48:09.246Z,93.73
2023-07-24T01:48:41.249Z,94.00
2023-07-24T01:49:13.213Z,94.13
2023-07-24T01:49:45.204Z,93.19
2023-07-24T01:50:17.262Z,93.42
2023-07-24T01:50:49.319Z,93.73
2023-07-24T01:51:21.191Z,93.80
2023-07-24T01:51:53.104Z,93.37
2023-07-24T01:52:25.319Z,93.90
2023-07-24T01:52:57.191Z,93.48
2023-07-24T01:53:29.072Z,93.21
2023-07-24T01:54:01.003Z,93.11
2023-07-24T01:54:32.908Z,92.86
2023-07-24T01:55:05.286Z,91.80
2023-07-24T01:55:37.312Z,92.47
2023-07-24T01:56:09.276Z,91.54
2023-07-24T01:56:41.298Z,91.79
2023-07-24T01:57:13.324Z,91.83
2023-07-24T01:57:45.315Z,92.15
2023-07-24T01:58:17.200Z,92.43
2023-07-24T01:58:49.152Z,93.54
2023-07-24T01:59:21.111Z,92.41
2023-07-24T01:59:53.093Z,92.52
2023-07-24T02:00:25.028Z,92.53
2023-07-24T02:00:57.560Z,92.75
2023-07-24T02:01:29.480Z,92.69
2023-07-24T02:02:01.416Z,92.67
2023-07-24T02:02:33.394Z,92.43
2023-07-24T02:03:05.452Z,92.56
2023-07-24T02:03:37.487Z,92.49
2023-07-24T02:04:09.407Z,92.10
2023-07-24T02:04:41.421Z,92.19
2023-07-24T02:05:13.587Z,92.39
2023-07-24T02:05:51.680Z,92.20
2023-07-24T02:06:23.710Z,92.08
2023-07-24T02:06:55.671Z,92.08
2023-07-24T02:07:27.627Z,91.96
2023-07-24T02:07:59.559Z,91.65
2023-07-24T02:08:31.492Z,91.23
2023-07-24T02:09:03.457Z,91.19
2023-07-24T02:09:35.959Z,90.85
2023-07-24T02:10:08.537Z,90.47
2023-07-24T02:10:40.649Z,90.29
2023-07-24T02:11:12.579Z,90.85
2023-07-24T02:11:44.511Z,90.42
2023-07-24T02:12:16.439Z,90.81
2023-07-24T02:12:48.426Z,90.69
2023-07-24T02:13:20.381Z,90.88
2023-07-24T02:13:52.332Z,90.60
2023-07-24T02:14:25.535Z,90.10
2023-07-24T02:14:58.492Z,90.34
2023-07-24T02:15:30.508Z,91.03
2023-07-24T02:16:02.507Z,90.86
2023-07-24T02:16:34.696Z,90.52
2023-07-24T02:17:06.845Z,91.10
2023-07-24T02:17:39.743Z,91.30
2023-07-24T02:18:11.786Z,91.35
2023-07-24T02:18:44.424Z,91.28
2023-07-24T02:19:16.297Z,91.52
2023-07-24T02:19:48.268Z,91.55
2023-07-24T02:20:20.159Z,91.51
2023-07-24T02:20:52.634Z,91.17
2023-07-24T02:21:24.563Z,91.40
2023-07-24T02:21:56.465Z,91.54
2023-07-24T02:22:28.417Z,92.04
2023-07-24T02:23:00.284Z,91.41
2023-07-24T02:23:32.218Z,91.42
2023-07-24T02:24:04.371Z,91.86
2023-07-24T02:24:36.454Z,91.87
2023-07-24T02:25:08.896Z,92.05
2023-07-24T02:25:40.813Z,92.46
2023-07-24T02:26:12.778Z,92.32
2023-07-24T02:26:44.709Z,92.78
2023-07-24T02:27:29.903Z,92.69
2023-07-24T02:28:01.821Z,93.00
2023-07-24T02:28:33.834Z,93.17
2023-07-24T02:29:05.852Z,92.80
2023-07-24T02:29:37.888Z,92.77
2023-07-24T02:30:10.090Z,92.91
2023-07-24T02:30:42.132Z,92.99
2023-07-24T02:31:14.180Z,93.05
2023-07-24T02:31:46.145Z,93.07
2023-07-24T02:32:18.123Z,93.25
2023-07-24T02:32:50.120Z,92.93
2023-07-24T02:33:22.130Z,92.72
2023-07-24T02:33:54.058Z,93.16
2023-07-24T02:34:27.544Z,93.01
2023-07-24T02:34:59.457Z,92.76
2023-07-24T02:35:31.354Z,92.22
2023-07-24T02:36:03.382Z,92.32
2023-07-24T02:36:35.341Z,92.29
2023-07-24T02:37:07.305Z,92.77
2023-07-24T02:37:39.232Z,92.32
2023-07-24T02:38:11.322Z,92.62
2023-07-24T02:38:43.245Z,92.52
2023-07-24T02:39:15.145Z,92.84
2023-07-24T02:39:47.789Z,92.59
2023-07-24T02:40:19.707Z,92.80
2023-07-24T02:40:51.670Z,93.02
2023-07-24T02:41:23.588Z,92.63
2023-07-24T02:41:55.491Z,92.50
2023-07-24T02:42:27.373Z,92.92
2023-07-24T02:42:59.290Z,92.70
2023-07-24T02:43:31.173Z,92.85
2023-07-24T02:44:05.150Z,92.77
2023-07-24T02:44:37.413Z,92.75
2023-07-24T02:45:12.239Z,92.09
2023-07-24T02:45:44.263Z,92.58
2023-07-24T02:46:16.273Z,92.39
2023-07-24T02:46:48.211Z,91.86
2023-07-24T02:47:20.116Z,92.31
2023-07-24T02:47:52.030Z,92.15
2023-07-24T02:48:24.054Z,92.09
2023-07-24T02:48:56.043Z,92.08
2023-07-24T02:49:27.954Z,91.65
2023-07-24T02:49:59.912Z,91.57
2023-07-24T02:50:31.804Z,92.12
2023-07-24T02:51:03.840Z,92.00
2023-07-24T02:51:35.761Z,91.90
2023-07-24T02:52:07.668Z,92.49
2023-07-24T02:52:39.566Z,91.83
2023-07-24T02:53:12.028Z,91.98
2023-07-24T02:53:44.049Z,91.80
2023-07-24T02:54:15.965Z,92.22
2023-07-24T02:54:47.913Z,91.77
2023-07-24T02:55:19.862Z,92.19
2023-07-24T02:55:51.797Z,92.35
2023-07-24T02:56:23.952Z,92.15
2023-07-24T02:56:55.842Z,92.46
2023-07-24T02:57:27.759Z,92.39
2023-07-24T02:57:59.770Z,92.10
2023-07-24T02:58:31.691Z,92.04
2023-07-24T02:59:03.565Z,92.29
2023-07-24T02:59:36.544Z,92.43
2023-07-24T03:00:09.068Z,92.22
2023-07-24T03:00:41.658Z,92.23
2023-07-24T03:01:15.368Z,92.48
2023-07-24T03:01:47.311Z,92.47
2023-07-24T03:02:19.209Z,92.46
2023-07-24T03:02:51.822Z,92.73
2023-07-24T03:03:23.883Z,92.82
2023-07-24T03:03:55.963Z,92.86
2023-07-24T03:04:27.960Z,92.59
2023-07-24T03:04:59.983Z,92.86
2023-07-24T03:05:32.586Z,92.50
2023-07-24T03:06:04.562Z,92.34
2023-07-24T03:06:37.257Z,92.56
2023-07-24T03:07:09.155Z,92.20
2023-07-24T03:07:41.115Z,92.05
2023-07-24T03:08:13.027Z,91.82
2023-07-24T03:08:44.894Z,92.02
2023-07-24T03:09:16.817Z,91.64
2023-07-24T03:09:48.827Z,92.27
2023-07-24T03:10:20.759Z,92.21
2023-07-24T03:10:52.718Z,92.42
2023-07-24T03:11:24.633Z,92.28
2023-07-24T03:11:56.562Z,92.15
2023-07-24T03:12:28.509Z,92.58
2023-07-24T03:13:00.480Z,92.15
2023-07-24T03:13:32.576Z,92.14
2023-07-24T03:14:04.502Z,92.29
2023-07-24T03:14:36.378Z,91.72
2023-07-24T03:15:08.832Z,92.24
2023-07-24T03:15:40.818Z,92.42
2023-07-24T03:16:12.929Z,92.16
2023-07-24T03:16:44.794Z,92.36
2023-07-24T03:17:16.706Z,92.52
2023-07-24T03:17:48.709Z,92.43
2023-07-24T03:18:21.031Z,92.76
2023-07-24T03:18:52.976Z,92.31
2023-07-24T03:19:24.948Z,92.58
2023-07-24T03:19:56.829Z,92.65
2023-07-24T03:20:28.769Z,92.82
2023-07-24T03:21:00.870Z,92.43
2023-07-24T03:21:32.836Z,93.06
2023-07-24T03:22:04.902Z,92.85
2023-07-24T03:22:36.838Z,92.67
2023-07-24T03:23:08.792Z,93.27
2023-07-24T03:23:40.717Z,93.36
2023-07-24T03:24:12.701Z,93.77
2023-07-24T03:24:44.740Z,93.53
2023-07-24T03:25:16.741Z,93.94
2023-07-24T03:25:48.773Z,93.83
2023-07-24T03:26:20.689Z,94.02
2023-07-24T03:26:52.564Z,94.13
2023-07-24T03:27:24.479Z,94.30
2023-07-24T03:27:56.393Z,94.08
2023-07-24T03:28:28.367Z,95.00
2023-07-24T03:29:01.434Z,95.11
2023-07-24T03:29:33.418Z,94.62
2023-07-24T03:30:05.990Z,94.92
2023-07-24T03:30:38.083Z,94.83
2023-07-24T03:31:10.159Z,94.81
2023-07-24T03:31:42.150Z,94.81
2023-07-24T03:32:15.538Z,95.04
2023-07-24T03:32:47.565Z,95.25
2023-07-24T03:33:19.530Z,95.04
2023-07-24T03:33:51.457Z,95.42
2023-07-24T03:34:23.390Z,95.42
2023-07-24T03:34:55.310Z,95.68
2023-07-24T03:35:27.359Z,95.45
2023-07-24T03:35:59.227Z,95.61
2023-07-24T03:36:31.516Z,95.34
2023-07-24T03:37:03.831Z,95.58
2023-07-24T03:37:39.557Z,95.47
2023-07-24T03:38:11.486Z,95.54
2023-07-24T03:38:43.415Z,95.67
2023-07-24T03:39:15.378Z,95.60
2023-07-24T03:39:47.382Z,95.83
2023-07-24T03:40:19.312Z,96.11
2023-07-24T03:40:51.279Z,96.12
2023-07-24T03:41:23.225Z,95.96
2023-07-24T03:41:55.116Z,96.26
2023-07-24T03:42:28.718Z,96.23
2023-07-24T03:43:00.628Z,95.99
2023-07-24T03:43:32.618Z,96.07
2023-07-24T03:44:04.678Z,96.13
2023-07-24T03:44:36.635Z,96.04
2023-07-24T03:45:09.478Z,95.83
2023-07-24T03:45:41.433Z,95.92
2023-07-24T03:46:13.407Z,95.93
2023-07-24T03:46:45.360Z,95.88
2023-07-24T03:47:17.398Z,96.05
2023-07-24T03:47:49.308Z,95.78
2023-07-24T03:48:21.248Z,95.99
2023-07-24T03:48:53.481Z,96.08
2023-07-24T03:49:25.387Z,95.99
2023-07-24T03:49:57.656Z,95.68
2023-07-24T03:50:30.985Z,95.72
2023-07-24T03:51:02.959Z,95.72
2023-07-24T03:51:34.975Z,95.68
2023-07-24T03:52:06.949Z,95.51
2023-07-24T03:52:38.970Z,95.66
2023-07-24T03:53:10.906Z,95.68
2023-07-24T03:53:42.799Z,95.61
2023-07-24T03:54:14.685Z,95.76
2023-07-24T03:54:46.673Z,95.84
2023-07-24T03:55:18.632Z,95.45
2023-07-24T03:55:50.716Z,95.22
2023-07-24T03:56:22.595Z,95.12
2023-07-24T03:56:54.525Z,95.23
2023-07-24T03:57:26.476Z,95.04
2023-07-24T03:57:58.344Z,94.88
2023-07-24T03:58:30.226Z,94.70
2023-07-24T03:59:02.141Z,94.86
2023-07-24T03:59:34.120Z,94.61
2023-07-24T04:00:06.868Z,94.63
2023-07-24T04:00:38.916Z,94.89
2023-07-24T04:01:11.244Z,94.55
2023-07-24T04:01:43.212Z,94.51
2023-07-24T04:02:15.166Z,94.53
2023-07-24T04:02:48.187Z,94.40
2023-07-24T04:03:20.329Z,94.41
2023-07-24T04:03:53.541Z,94.64
2023-07-24T04:04:25.844Z,94.38
2023-07-24T04:04:57.804Z,94.07
2023-07-24T04:05:29.689Z,94.46
2023-07-24T04:06:02.006Z,94.53
2023-07-24T04:06:33.966Z,94.35
2023-07-24T04:07:06.828Z,94.48
2023-07-24T04:07:39.008Z,94.46
2023-07-24T04:08:11.043Z,94.25
2023-07-24T04:08:43.037Z,93.95
2023-07-24T04:09:17.625Z,93.96
2023-07-24T04:09:49.548Z,94.23
2023-07-24T04:10:21.476Z,94.39
2023-07-24T04:10:53.772Z,94.31
2023-07-24T04:11:25.744Z,94.30
2023-07-24T04:11:57.653Z,93.83
2023-07-24T04:12:30.811Z,94.07
2023-07-24T04:13:02.756Z,94.10
2023-07-24T04:13:34.688Z,94.05
2023-07-24T04:14:06.603Z,94.43
2023-07-24T04:14:38.487Z,93.50
2023-07-24T04:15:10.587Z,93.58
2023-07-24T04:15:42.945Z,93.60
2023-07-24T04:16:14.850Z,93.50
2023-07-24T04:16:47.116Z,93.53
2023-07-24T04:17:19.507Z,93.31
2023-07-24T04:17:51.479Z,93.42
2023-07-24T04:18:23.373Z,93.67
2023-07-24T04:18:55.276Z,93.38
2023-07-24T04:19:27.202Z,92.76
2023-07-24T04:19:59.173Z,93.19
2023-07-24T04:20:31.118Z,93.07
2023-07-24T04:21:03.306Z,92.85
2023-07-24T04:21:35.291Z,92.92
2023-07-24T04:22:07.173Z,92.96
2023-07-24T04:22:39.384Z,92.79
2023-07-24T04:23:11.331Z,92.96
2023-07-24T04:23:43.250Z,92.38
2023-07-24T04:24:15.213Z,92.08
2023-07-24T04:24:47.120Z,92.14
2023-07-24T04:25:19.140Z,92.56
2023-07-24T04:25:51.763Z,92.55
2023-07-24T04:26:23.733Z,91.82
2023-07-24T04:26:55.757Z,92.16
2023-07-24T04:27:27.801Z,92.34
2023-07-24T04:27:59.769Z,92.27
2023-07-24T04:28:31.713Z,91.80
2023-07-24T04:29:03.651Z,91.95
2023-07-24T04:29:35.604Z,91.90
2023-07-24T04:30:08.265Z,92.23
2023-07-24T04:30:40.490Z,92.13
2023-07-24T04:31:12.619Z,92.33
2023-07-24T04:31:44.583Z,92.06
2023-07-24T04:32:16.472Z,91.75
2023-07-24T04:32:48.381Z,91.79
2023-07-24T04:33:20.284Z,91.81
2023-07-24T04:33:52.203Z,91.46
2023-07-24T04:34:24.136Z,91.36
2023-07-24T04:34:56.140Z,91.48
2023-07-24T04:35:28.313Z,91.39
2023-07-24T04:36:00.318Z,91.02
2023-07-24T04:36:32.529Z,91.12
2023-07-24T04:37:04.942Z,91.24
2023-07-24T04:37:37.432Z,91.19
2023-07-24T04:38:09.466Z,90.94
2023-07-24T04:38:41.365Z,91.46
2023-07-24T04:39:13.265Z,90.83
2023-07-24T04:39:45.279Z,90.72
2023-07-24T04:40:17.267Z,91.14
2023-07-24T04:40:49.192Z,91.14
2023-07-24T04:41:21.098Z,91.22
2023-07-24T04:41:53.023Z,91.47
2023-07-24T04:42:25.012Z,91.08
2023-07-24T04:42:57.062Z,91.53
2023-07-24T04:43:29.794Z,91.56
2023-07-24T04:44:01.707Z,91.55
2023-07-24T04:44:33.722Z,91.60
2023-07-24T04:45:06.100Z,91.46
2023-07-24T04:45:38.011Z,91.79
2023-07-24T04:46:09.931Z,91.50
2023-07-24T04:46:41.868Z,91.62
2023-07-24T04:47:13.827Z,91.41
2023-07-24T04:47:45.842Z,91.76
2023-07-24T04:48:17.763Z,91.23
2023-07-24T04:48:49.700Z,90.81
2023-07-24T04:49:21.614Z,90.86
2023-07-24T04:49:53.531Z,91.07
2023-07-24T04:50:25.469Z,90.33
2023-07-24T04:50:58.150Z,90.67
2023-07-24T04:51:30.054Z,90.64
2023-07-24T04:52:02.000Z,90.58
2023-07-24T04:52:33.860Z,90.48
2023-07-24T04:53:05.740Z,90.24
2023-07-24T04:53:37.623Z,89.64
2023-07-24T04:54:09.964Z,89.82
2023-07-24T04:54:41.885Z,90.05
2023-07-24T04:55:13.873Z,90.24
2023-07-24T04:55:47.376Z,89.78
2023-07-24T04:56:19.314Z,89.03
2023-07-24T04:56:51.336Z,88.99
2023-07-24T04:57:23.375Z,88.83
2023-07-24T04:57:55.288Z,88.51
2023-07-24T04:58:27.301Z,88.35
2023-07-24T04:58:59.211Z,88.47
2023-07-24T04:59:31.100Z,88.50
2023-07-24T05:00:03.283Z,88.47
2023-07-24T05:00:35.217Z,88.52
2023-07-24T05:01:07.167Z,87.97
2023-07-24T05:01:39.107Z,88.51
2023-07-24T05:02:11.059Z,87.93
2023-07-24T05:02:43.097Z,88.00
2023-07-24T05:03:17.800Z,87.29
2023-07-24T05:03:49.725Z,87.34
2023-07-24T05:04:21.632Z,86.90
2023-07-24T05:04:53.629Z,87.42
2023-07-24T05:05:25.610Z,87.01
2023-07-24T05:05:57.873Z,86.93
2023-07-24T05:06:30.222Z,86.71
2023-07-24T05:07:02.402Z,87.35
2023-07-24T05:07:34.392Z,87.48
2023-07-24T05:08:07.122Z,86.99
2023-07-24T05:08:39.043Z,87.46
2023-07-24T05:09:10.935Z,86.88
2023-07-24T05:09:42.901Z,87.31
2023-07-24T05:10:14.951Z,87.47
2023-07-24T05:10:46.900Z,87.33
2023-07-24T05:11:18.783Z,86.92
2023-07-24T05:11:50.638Z,87.04
2023-07-24T05:12:22.514Z,87.37
2023-07-24T05:12:57.768Z,87.73
2023-07-24T05:13:29.704Z,87.57
2023-07-24T05:14:01.599Z,88.02
2023-07-24T05:14:33.496Z,87.53
2023-07-24T05:15:05.990Z,87.40
2023-07-24T05:15:37.920Z,87.12
2023-07-24T05:16:09.981Z,87.21
2023-07-24T05:16:42.332Z,87.16
2023-07-24T05:17:14.609Z,86.90
2023-07-24T05:17:46.503Z,86.88
2023-07-24T05:18:18.555Z,86.86
2023-07-24T05:18:50.417Z,87.29
2023-07-24T05:19:22.309Z,86.43
2023-07-24T05:19:54.256Z,86.68
2023-07-24T05:20:26.168Z,86.92
2023-07-24T05:20:58.064Z,87.16
2023-07-24T05:21:30.202Z,86.70
2023-07-24T05:22:02.143Z,86.35
2023-07-24T05:22:34.090Z,87.14
2023-07-24T05:23:06.054Z,86.05
2023-07-24T05:23:37.930Z,86.92
2023-07-24T05:24:09.909Z,86.09
2023-07-24T05:24:42.246Z,86.88
2023-07-24T05:25:14.354Z,86.89
2023-07-24T05:25:46.336Z,85.88
2023-07-24T05:26:18.319Z,85.45
2023-07-24T05:26:50.281Z,86.04
2023-07-24T05:27:22.314Z,86.34
2023-07-24T05:27:54.348Z,85.90
2023-07-24T05:28:28.645Z,85.64
2023-07-24T05:29:00.587Z,85.45
2023-07-24T05:29:35.771Z,85.22
2023-07-24T05:30:08.132Z,84.71
2023-07-24T05:30:40.062Z,85.41
2023-07-24T05:31:12.091Z,84.70
2023-07-24T05:31:44.063Z,84.63
2023-07-24T05:32:16.042Z,84.74
2023-07-24T05:32:48.077Z,84.46
2023-07-24T05:33:20.121Z,83.92
2023-07-24T05:33:51.991Z,83.49
2023-07-24T05:34:23.940Z,83.98
2023-07-24T05:34:55.814Z,83.55
2023-07-24T05:35:28.125Z,84.11
2023-07-24T05:36:04.091Z,83.91
2023-07-24T05:36:35.988Z,82.21
2023-07-24T05:37:07.927Z,83.01
2023-07-24T05:37:39.818Z,82.43
2023-07-24T05:38:11.981Z,82.53
2023-07-24T05:38:43.908Z,82.63
2023-07-24T05:39:15.839Z,82.88
2023-07-24T05:39:47.887Z,82.35
2023-07-24T05:40:19.850Z,82.23
2023-07-24T05:41:03.198Z,81.51
2023-07-24T05:41:35.175Z,81.90
2023-07-24T05:42:07.190Z,81.89
2023-07-24T05:42:42.785Z,81.36
2023-07-24T05:43:14.881Z,80.74
2023-07-24T05:43:46.905Z,81.69
2023-07-24T05:44:18.830Z,80.57
2023-07-24T05:44:50.727Z,80.54
2023-07-24T05:45:22.676Z,80.34
2023-07-24T05:45:56.108Z,81.08
2023-07-24T05:46:28.214Z,79.89
2023-07-24T05:47:00.459Z,80.24
2023-07-24T05:47:32.430Z,80.77
2023-07-24T05:48:04.540Z,81.37
2023-07-24T05:48:36.511Z,80.92
2023-07-24T05:49:08.558Z,81.12
2023-07-24T05:49:42.679Z,81.38
2023-07-24T05:50:15.169Z,81.63
2023-07-24T05:50:47.428Z,80.95
2023-07-24T05:51:19.337Z,80.77
2023-07-24T05:51:51.402Z,80.44
2023-07-24T05:52:23.378Z,80.74
2023-07-24T05:52:55.266Z,79.86
2023-07-24T05:53:27.188Z,80.23
2023-07-24T05:53:59.123Z,79.59
2023-07-24T05:54:31.025Z,79.58
2023-07-24T05:55:04.259Z,80.08
2023-07-24T05:55:36.249Z,79.42
2023-07-24T05:56:08.269Z,80.30
2023-07-24T05:56:41.035Z,80.22
2023-07-24T05:57:13.043Z,80.46
2023-07-24T05:57:46.023Z,80.26
2023-07-24T05:58:17.935Z,80.04
2023-07-24T05:58:50.932Z,79.98
2023-07-24T05:59:22.846Z,79.89
2023-07-24T05:59:54.843Z,79.57
2023-07-24T06:00:26.785Z,78.92
2023-07-24T06:00:59.363Z,79.21
2023-07-24T06:01:31.375Z,78.50
2023-07-24T06:02:03.357Z,79.53
2023-07-24T06:02:35.306Z,78.87
2023-07-24T06:03:08.625Z,78.55
2023-07-24T06:03:40.901Z,78.38
2023-07-24T06:04:13.064Z,78.21
2023-07-24T06:04:45.134Z,77.77
2023-07-24T06:05:17.453Z,78.47
2023-07-24T06:05:56.082Z,78.37
2023-07-24T06:06:29.758Z,77.99
2023-07-24T06:07:01.896Z,78.42
2023-07-24T06:07:33.851Z,77.53
2023-07-24T06:08:05.847Z,77.56
2023-07-24T06:08:37.724Z,77.37
2023-07-24T06:09:09.614Z,77.34
2023-07-24T06:09:41.535Z,75.97
2023-07-24T06:10:13.830Z,76.99
2023-07-24T06:10:49.006Z,77.30
2023-07-24T06:11:21.141Z,76.53
2023-07-24T06:11:53.074Z,76.79
2023-07-24T06:12:25.110Z,77.94
2023-07-24T06:12:57.059Z,75.93
2023-07-24T06:13:28.946Z,76.46
2023-07-24T06:14:00.816Z,76.32
2023-07-24T06:14:32.672Z,76.52
2023-07-24T06:15:05.534Z,75.80
2023-07-24T06:15:37.495Z,75.81
2023-07-24T06:16:09.580Z,75.50
2023-07-24T06:16:41.789Z,76.01
2023-07-24T06:17:13.964Z,76.02
2023-07-24T06:17:45.962Z,76.10
2023-07-24T06:18:17.938Z,75.62
2023-07-24T06:18:49.843Z,75.74
2023-07-24T06:19:22.504Z,75.27
2023-07-24T06:19:54.451Z,74.92
2023-07-24T06:20:26.312Z,75.50
2023-07-24T06:20:58.229Z,75.36
2023-07-24T06:21:30.210Z,74.96
2023-07-24T06:22:02.094Z,75.10
2023-07-24T06:22:34.072Z,74.51
2023-07-24T06:23:06.218Z,74.41
2023-07-24T06:23:38.176Z,74.54
2023-07-24T06:24:13.375Z,74.44
2023-07-24T06:24:45.384Z,74.56
2023-07-24T06:25:17.450Z,74.58
2023-07-24T06:25:49.377Z,73.31
2023-07-24T06:26:21.312Z,74.56
2023-07-24T06:26:53.260Z,74.14
2023-07-24T06:27:25.290Z,73.84
2023-07-24T06:27:57.192Z,73.44
2023-07-24T06:28:30.014Z,73.94
2023-07-24T06:29:01.927Z,73.96
2023-07-24T06:29:34.289Z,73.18
2023-07-24T06:30:14.980Z,73.98
2023-07-24T06:30:48.157Z,73.24
2023-07-24T06:31:20.084Z,73.26
2023-07-24T06:31:52.049Z,73.55
2023-07-24T06:32:24.095Z,72.90
2023-07-24T06:32:56.290Z,72.81
2023-07-24T06:33:28.231Z,72.21
2023-07-24T06:34:00.171Z,72.00
2023-07-24T06:34:32.064Z,71.82
2023-07-24T06:35:04.075Z,70.02
2023-07-24T06:35:36.749Z,70.14
2023-07-24T06:36:14.546Z,70.77
2023-07-24T06:36:46.544Z,70.08
2023-07-24T06:37:22.721Z,69.33
2023-07-24T06:37:54.913Z,69.93
2023-07-24T06:38:26.828Z,68.86
2023-07-24T06:38:58.750Z,69.19
2023-07-24T06:39:30.737Z,68.69
2023-07-24T06:40:02.857Z,67.39
2023-07-24T06:40:34.754Z,67.36
2023-07-24T06:41:07.590Z,67.30
2023-07-24T06:41:39.576Z,66.97
2023-07-24T06:42:11.556Z,66.77
2023-07-24T06:42:43.524Z,66.48
2023-07-24T06:43:15.498Z,66.68
2023-07-24T06:43:47.400Z,66.08
2023-07-24T06:44:19.402Z,66.47
2023-07-24T06:44:51.373Z,66.45
2023-07-24T06:45:23.324Z,66.57
2023-07-24T06:45:55.359Z,65.95
2023-07-24T06:46:27.410Z,65.82
2023-07-24T06:46:59.464Z,65.85
2023-07-24T06:47:31.354Z,65.49
2023-07-24T06:48:03.308Z,64.94
2023-07-24T06:48:35.306Z,64.18
2023-07-24T06:49:07.297Z,63.94
2023-07-24T06:49:39.332Z,64.39
2023-07-24T06:50:11.365Z,64.02
2023-07-24T06:50:43.397Z,63.50
2023-07-24T06:51:15.362Z,62.18
2023-07-24T06:51:47.351Z,63.75
2023-07-24T06:52:19.518Z,61.91
2023-07-24T06:52:53.111Z,62.23
2023-07-24T06:53:25.051Z,62.79
2023-07-24T06:53:57.005Z,62.33
2023-07-24T06:54:28.974Z,60.67
2023-07-24T06:55:01.000Z,60.86
2023-07-24T06:55:32.937Z,60.65
2023-07-24T06:56:05.907Z,60.21
2023-07-24T06:56:37.901Z,60.72
2023-07-24T06:57:09.823Z,59.43
2023-07-24T06:57:41.758Z,60.45
2023-07-24T06:58:13.690Z,59.35
2023-07-24T06:58:45.589Z,59.76
2023-07-24T06:59:17.483Z,59.44
2023-07-24T06:59:49.376Z,60.98
2023-07-24T07:00:21.284Z,61.84
2023-07-24T07:00:53.494Z,61.72